createdAt,value
2022-12-28T00:01:21.275Z,14.32
2022-12-28T00:03:49.269Z,12.82
2022-12-28T00:06:16.979Z,12.68
2022-12-28T00:08:44.234Z,10.52
2022-12-28T00:11:26.639Z,10.05
2022-12-28T00:16:30.497Z,11.63
2022-12-28T00:18:58.816Z,13.45
2022-12-28T00:21:26.382Z,12.57
2022-12-28T00:23:57.461Z,11.27
2022-12-28T00:26:26.212Z,10.93
2022-12-28T00:28:55.733Z,10.40
2022-12-28T00:31:27.433Z,11.48
2022-12-28T00:33:56.148Z,14.65
2022-12-28T00:36:23.317Z,11.02
2022-12-28T00:38:50.499Z,11.75
2022-12-28T00:41:17.835Z,10.10
2022-12-28T00:43:46.524Z,10.45
2022-12-28T00:46:13.784Z,9.55
2022-12-28T00:48:41.261Z,11.23
2022-12-28T00:51:09.857Z,10.07
2022-12-28T00:53:37.002Z,11.95
2022-12-28T00:56:09.452Z,9.35
2022-12-28T00:58:36.772Z,14.05
2022-12-28T01:01:05.035Z,11.98
2022-12-28T01:03:32.555Z,14.20
2022-12-28T01:05:59.848Z,11.13
2022-12-28T01:08:27.036Z,10.00
2022-12-28T01:10:54.209Z,12.00
2022-12-28T01:13:21.451Z,19.15
2022-12-28T01:15:48.589Z,15.32
2022-12-28T01:18:15.887Z,18.52
2022-12-28T01:20:43.025Z,20.83
2022-12-28T01:23:10.132Z,24.80
2022-12-28T01:25:38.186Z,21.42
2022-12-28T01:28:05.678Z,24.25
2022-12-28T01:30:32.855Z,18.10
2022-12-28T01:33:00.335Z,15.07
2022-12-28T01:35:27.649Z,29.50
2022-12-28T01:37:56.832Z,31.15
2022-12-28T01:40:24.105Z,23.90
2022-12-28T01:42:51.241Z,18.65
2022-12-28T01:45:21.297Z,15.57
2022-12-28T01:47:50.333Z,13.07
2022-12-28T01:50:19.225Z,12.45
2022-12-28T01:52:52.136Z,12.05
2022-12-28T01:55:22.049Z,8.52
2022-12-28T01:57:54.220Z,9.68
2022-12-28T02:00:22.177Z,8.38
2022-12-28T02:02:58.081Z,8.90
2022-12-28T02:05:28.715Z,8.40
2022-12-28T02:08:08.260Z,9.77
2022-12-28T02:10:44.539Z,8.70
2022-12-28T02:13:13.849Z,8.80
2022-12-28T02:15:41.195Z,8.55
2022-12-28T02:18:08.755Z,8.55
2022-12-28T02:20:57.373Z,8.65
2022-12-28T02:23:34.786Z,6.47
2022-12-28T02:26:04.973Z,8.98
2022-12-28T02:28:44.045Z,7.78
2022-12-28T02:31:34.169Z,9.02
2022-12-28T02:34:24.219Z,8.20
2022-12-28T02:36:55.266Z,9.75
2022-12-28T02:39:25.265Z,7.22
2022-12-28T02:41:53.413Z,8.05
2022-12-28T02:44:39.305Z,6.60
2022-12-28T02:47:30.012Z,10.55
2022-12-28T02:50:07.616Z,8.38
2022-12-28T02:52:36.154Z,9.35
2022-12-28T02:55:41.086Z,7.10
2022-12-28T02:58:17.220Z,8.10
2022-12-28T03:00:50.325Z,7.25
2022-12-28T03:03:27.948Z,7.68
2022-12-28T03:06:20.410Z,6.28
2022-12-28T03:08:49.403Z,6.70
2022-12-28T03:11:23.131Z,6.80
2022-12-28T03:13:56.595Z,5.90
2022-12-28T03:16:55.974Z,5.68
2022-12-28T03:19:49.539Z,7.20
2022-12-28T03:22:35.955Z,6.88
2022-12-28T03:25:26.163Z,8.18
2022-12-28T03:28:12.418Z,5.13
2022-12-28T03:31:00.026Z,7.07
2022-12-28T03:33:28.048Z,5.68
2022-12-28T03:35:58.274Z,6.75
2022-12-28T03:38:29.025Z,10.10
2022-12-28T03:41:12.656Z,6.03
2022-12-28T03:43:46.087Z,9.93
2022-12-28T03:46:19.841Z,6.78
2022-12-28T03:48:47.882Z,7.18
2022-12-28T03:51:17.522Z,10.75
2022-12-28T03:53:46.641Z,11.40
2022-12-28T03:56:20.886Z,9.60
2022-12-28T03:58:49.770Z,9.10
2022-12-28T04:01:19.934Z,9.02
2022-12-28T04:03:47.897Z,9.20
2022-12-28T04:06:16.831Z,8.98
2022-12-28T04:08:45.081Z,13.88
2022-12-28T04:11:12.958Z,15.07
2022-12-28T04:13:41.346Z,12.23
2022-12-28T04:16:13.364Z,15.43
2022-12-28T04:18:42.323Z,10.77
2022-12-28T04:21:13.409Z,13.93
2022-12-28T04:23:43.485Z,12.18
2022-12-28T04:26:36.845Z,13.20
2022-12-28T04:29:04.400Z,21.33
2022-12-28T04:31:47.528Z,15.15
2022-12-28T04:34:18.623Z,12.07
2022-12-28T04:36:53.277Z,16.42
2022-12-28T04:39:22.337Z,16.60
2022-12-28T04:41:49.497Z,19.83
2022-12-28T04:44:17.556Z,19.63
2022-12-28T04:46:44.772Z,18.52
2022-12-28T04:49:12.602Z,17.83
2022-12-28T04:51:39.754Z,14.77
2022-12-28T04:54:07.136Z,18.17
2022-12-28T04:56:34.364Z,18.27
2022-12-28T04:59:01.519Z,13.88
2022-12-28T05:01:29.670Z,20.30
2022-12-28T05:03:59.005Z,12.50
2022-12-28T05:06:28.014Z,17.52
2022-12-28T05:08:56.140Z,17.42
2022-12-28T05:11:24.550Z,19.60
2022-12-28T05:13:51.929Z,24.35
2022-12-28T05:16:21.008Z,17.90
2022-12-28T05:18:48.236Z,19.58
2022-12-28T05:21:17.026Z,15.43
2022-12-28T05:23:44.309Z,17.23
2022-12-28T05:26:12.894Z,16.55
2022-12-28T05:28:40.576Z,16.88
2022-12-28T05:31:11.709Z,13.52
2022-12-28T05:33:38.872Z,15.10
2022-12-28T05:36:06.142Z,14.48
2022-12-28T05:38:33.564Z,11.65
2022-12-28T05:41:06.993Z,16.27
2022-12-28T05:43:34.665Z,13.57
2022-12-28T05:46:03.316Z,10.65
2022-12-28T05:48:31.217Z,9.95
2022-12-28T05:51:02.598Z,10.57
2022-12-28T05:53:30.812Z,9.35
2022-12-28T05:56:03.769Z,9.23
2022-12-28T05:58:30.985Z,11.93
2022-12-28T06:01:24.276Z,11.38
2022-12-28T06:03:59.328Z,9.98
2022-12-28T06:06:26.906Z,6.68
2022-12-28T06:08:54.115Z,8.38
2022-12-28T06:11:23.625Z,8.00
2022-12-28T06:13:51.133Z,11.77
2022-12-28T06:16:28.906Z,9.65
2022-12-28T06:18:56.249Z,11.25
2022-12-28T06:21:27.922Z,9.15
2022-12-28T06:23:57.880Z,15.20
2022-12-28T06:26:25.502Z,13.32
2022-12-28T06:28:52.697Z,11.18
2022-12-28T06:31:21.155Z,10.43
2022-12-28T06:33:48.936Z,11.77
2022-12-28T06:36:20.789Z,9.35
2022-12-28T06:38:48.812Z,8.13
2022-12-28T06:41:16.808Z,9.63
2022-12-28T06:43:44.750Z,7.82
2022-12-28T06:46:12.574Z,13.43
2022-12-28T06:48:39.932Z,10.15
2022-12-28T06:51:17.075Z,12.70
2022-12-28T06:53:44.602Z,10.60
2022-12-28T06:56:16.178Z,12.05
2022-12-28T06:58:43.812Z,10.63
2022-12-28T07:01:25.038Z,11.80
2022-12-28T07:03:53.292Z,13.23
2022-12-28T07:06:21.377Z,14.18
2022-12-28T07:08:49.916Z,8.93
2022-12-28T07:11:21.529Z,13.00
2022-12-28T07:13:48.972Z,12.10
2022-12-28T07:16:17.325Z,10.75
2022-12-28T07:18:44.584Z,8.50
2022-12-28T07:21:16.856Z,16.20
2022-12-28T07:23:43.981Z,17.15
2022-12-28T07:26:14.347Z,16.33
2022-12-28T07:28:42.815Z,16.02
2022-12-28T07:31:30.283Z,18.17
2022-12-28T07:33:58.471Z,13.70
2022-12-28T07:36:26.415Z,13.75
2022-12-28T07:38:53.698Z,16.73
2022-12-28T07:41:22.601Z,16.48
2022-12-28T07:43:50.162Z,13.38
2022-12-28T07:46:18.654Z,12.95
2022-12-28T07:48:46.284Z,10.55
2022-12-28T07:51:16.495Z,14.85
2022-12-28T07:53:44.667Z,15.43
2022-12-28T07:56:12.106Z,18.70
2022-12-28T08:01:09.647Z,27.77
2022-12-28T08:03:37.272Z,34.78
2022-12-28T08:06:05.746Z,52.53
2022-12-28T08:08:34.615Z,48.25
2022-12-28T08:11:06.588Z,50.65
2022-12-28T08:13:34.578Z,64.45
2022-12-28T08:16:01.735Z,61.58
2022-12-28T08:18:28.891Z,62.22
2022-12-28T08:21:00.158Z,68.13
2022-12-28T08:23:27.241Z,72.05
2022-12-28T08:25:54.729Z,54.78
2022-12-28T08:28:21.863Z,51.97
2022-12-28T08:30:48.988Z,40.40
2022-12-28T08:33:16.088Z,32.88
2022-12-28T08:35:43.161Z,30.23
2022-12-28T08:38:10.410Z,28.73
2022-12-28T08:40:37.574Z,49.65
2022-12-28T08:43:04.838Z,48.30
2022-12-28T08:45:31.964Z,51.25
2022-12-28T08:47:59.146Z,39.83
2022-12-28T08:50:31.416Z,53.83
2022-12-28T08:52:58.981Z,57.03
2022-12-28T08:55:26.158Z,56.10
2022-12-28T08:57:53.391Z,56.70
2022-12-28T09:00:20.866Z,45.17
2022-12-28T09:02:47.999Z,49.05
2022-12-28T09:05:15.187Z,47.67
2022-12-28T09:07:42.411Z,52.10
2022-12-28T09:10:09.802Z,49.72
2022-12-28T09:12:36.949Z,46.63
2022-12-28T09:15:04.136Z,44.25
2022-12-28T09:17:32.804Z,50.75
2022-12-28T09:19:59.933Z,48.65
2022-12-28T09:22:27.055Z,53.90
2022-12-28T09:24:54.230Z,37.47
2022-12-28T09:27:21.293Z,36.92
2022-12-28T09:29:48.791Z,44.13
2022-12-28T09:32:15.991Z,45.08
2022-12-28T09:34:43.216Z,36.20
2022-12-28T09:37:10.429Z,45.10
2022-12-28T09:39:37.626Z,21.08
2022-12-28T09:42:09.309Z,19.25
2022-12-28T09:44:43.207Z,23.25
2022-12-28T09:47:12.666Z,40.42
2022-12-28T09:49:49.174Z,29.10
2022-12-28T09:52:34.347Z,26.25
2022-12-28T09:55:07.442Z,21.87
2022-12-28T09:57:37.661Z,27.00
2022-12-28T10:00:07.089Z,30.75
2022-12-28T10:02:37.527Z,31.67
2022-12-28T10:05:05.132Z,26.10
2022-12-28T10:07:33.750Z,22.88
2022-12-28T10:10:00.955Z,15.82
2022-12-28T10:12:29.993Z,20.25
2022-12-28T10:14:57.954Z,21.77
2022-12-28T10:17:29.013Z,19.10
2022-12-28T10:19:58.273Z,26.08
2022-12-28T10:22:26.967Z,19.30
2022-12-28T10:24:54.570Z,20.42
2022-12-28T10:27:23.162Z,29.10
2022-12-28T10:29:54.129Z,23.52
2022-12-28T10:32:21.274Z,22.92
2022-12-28T10:34:59.173Z,20.83
2022-12-28T10:37:27.667Z,17.85
2022-12-28T10:39:59.337Z,18.65
2022-12-28T10:42:28.203Z,25.00
2022-12-28T10:44:59.131Z,20.10
2022-12-28T10:47:31.572Z,20.42
2022-12-28T10:52:55.838Z,26.25
2022-12-28T10:55:27.406Z,36.45
2022-12-28T11:00:44.587Z,22.10
2022-12-28T11:03:24.093Z,19.05
2022-12-28T11:05:57.189Z,15.13
2022-12-28T11:08:24.751Z,21.83
2022-12-28T11:10:56.932Z,19.77
2022-12-28T11:13:24.292Z,18.55
2022-12-28T11:15:51.504Z,16.25
2022-12-28T11:18:18.858Z,21.80
2022-12-28T11:20:47.776Z,22.80
2022-12-28T11:23:22.513Z,30.55
2022-12-28T11:25:49.919Z,21.92
2022-12-28T11:28:19.403Z,21.80
2022-12-28T11:30:49.977Z,25.58
2022-12-28T11:33:42.454Z,24.98
2022-12-28T11:36:17.180Z,24.67
2022-12-28T11:38:45.510Z,15.32
2022-12-28T11:41:28.874Z,23.38
2022-12-28T11:44:01.863Z,18.25
2022-12-28T11:46:29.489Z,20.77
2022-12-28T11:49:02.571Z,14.20
2022-12-28T11:51:32.355Z,16.90
2022-12-28T11:53:59.751Z,17.92
2022-12-28T11:56:28.345Z,18.50
2022-12-28T11:58:58.644Z,22.33
2022-12-28T12:01:36.554Z,19.52
2022-12-28T12:04:03.763Z,23.50
2022-12-28T12:06:47.411Z,20.92
2022-12-28T12:09:28.495Z,20.70
2022-12-28T12:11:57.904Z,16.63
2022-12-28T12:14:30.484Z,19.88
2022-12-28T12:17:03.539Z,22.75
2022-12-28T12:19:35.487Z,20.98
2022-12-28T12:22:06.923Z,28.25
2022-12-28T12:24:41.857Z,23.60
2022-12-28T12:27:12.287Z,20.60
2022-12-28T12:29:44.835Z,19.42
2022-12-28T12:32:19.407Z,16.88
2022-12-28T12:34:47.892Z,20.27
2022-12-28T12:37:36.563Z,20.02
2022-12-28T12:40:09.601Z,21.92
2022-12-28T12:42:42.996Z,14.00
2022-12-28T12:45:45.453Z,19.98
2022-12-28T12:48:24.806Z,16.35
2022-12-28T12:51:05.345Z,15.10
2022-12-28T12:53:48.946Z,18.67
2022-12-28T12:56:26.071Z,21.50
2022-12-28T12:58:53.152Z,19.67
2022-12-28T13:01:26.527Z,18.52
2022-12-28T13:03:54.375Z,23.02
2022-12-28T13:06:25.881Z,22.40
2022-12-28T13:08:53.065Z,21.95
2022-12-28T13:11:20.803Z,16.95
2022-12-28T13:13:51.776Z,22.92
2022-12-28T13:16:20.892Z,23.88
2022-12-28T13:18:55.277Z,22.40
2022-12-28T13:21:23.331Z,21.85
2022-12-28T13:23:51.259Z,28.17
2022-12-28T13:26:20.339Z,27.73
2022-12-28T13:29:01.003Z,23.73
2022-12-28T13:31:35.347Z,24.48
2022-12-28T13:34:04.345Z,25.13
2022-12-28T13:36:31.689Z,25.67
2022-12-28T13:39:06.704Z,23.73
2022-12-28T13:41:35.505Z,29.08
2022-12-28T13:44:02.666Z,30.30
2022-12-28T13:46:30.853Z,23.50
2022-12-28T13:48:59.711Z,19.92
2022-12-28T13:51:26.931Z,21.02
2022-12-28T13:53:56.217Z,20.67
2022-12-28T13:56:24.145Z,23.98
2022-12-28T13:58:54.743Z,20.25
2022-12-28T14:01:23.606Z,22.63
2022-12-28T14:03:53.188Z,23.90
2022-12-28T14:06:21.086Z,27.05
2022-12-28T14:08:48.527Z,24.67
2022-12-28T14:11:16.494Z,23.70
2022-12-28T14:13:43.680Z,27.35
2022-12-28T14:16:11.750Z,25.45
2022-12-28T14:18:39.198Z,28.52
2022-12-28T14:21:07.380Z,28.02
2022-12-28T14:23:36.687Z,32.85
2022-12-28T14:26:20.416Z,34.13
2022-12-28T14:28:49.180Z,34.50
2022-12-28T14:31:20.757Z,43.10
2022-12-28T14:33:57.272Z,35.35
2022-12-28T14:36:29.899Z,30.88
2022-12-28T14:39:04.158Z,33.65
2022-12-28T14:41:41.505Z,31.85
2022-12-28T14:44:17.661Z,28.63
2022-12-28T14:46:45.012Z,33.00
2022-12-28T14:49:30.616Z,32.70
2022-12-28T14:51:58.259Z,34.30
2022-12-28T14:54:26.549Z,31.10
2022-12-28T14:56:59.617Z,36.78
2022-12-28T14:59:37.747Z,31.98
2022-12-28T15:02:05.405Z,38.83
2022-12-28T15:04:41.875Z,34.58
2022-12-28T15:07:10.336Z,33.00
2022-12-28T15:09:37.683Z,33.97
2022-12-28T15:12:09.899Z,34.72
2022-12-28T15:14:37.590Z,33.38
2022-12-28T15:17:04.946Z,29.10
2022-12-28T15:19:33.230Z,32.15
2022-12-28T15:22:00.679Z,31.25
2022-12-28T15:24:33.473Z,37.90
2022-12-28T15:27:01.498Z,31.48
2022-12-28T15:29:55.555Z,31.40
2022-12-28T15:32:15.935Z,32.30
2022-12-28T15:34:43.120Z,33.95
2022-12-28T15:37:10.344Z,30.83
2022-12-28T15:39:37.456Z,31.65
2022-12-28T15:42:04.679Z,29.40
2022-12-28T15:44:32.021Z,42.80
2022-12-28T15:46:59.368Z,35.53
2022-12-28T15:49:26.798Z,36.03
2022-12-28T15:51:54.289Z,40.22
2022-12-28T15:54:21.408Z,42.30
2022-12-28T15:56:55.307Z,37.95
2022-12-28T15:59:22.489Z,43.55
2022-12-28T16:01:50.062Z,38.70
2022-12-28T16:04:17.366Z,36.50
2022-12-28T16:06:45.340Z,40.00
2022-12-28T16:09:13.154Z,40.67
2022-12-28T16:11:40.612Z,36.10
2022-12-28T16:14:09.146Z,37.92
2022-12-28T16:16:38.710Z,36.78
2022-12-28T16:19:07.214Z,41.28
2022-12-28T16:21:34.959Z,42.35
2022-12-28T16:24:02.303Z,42.55
2022-12-28T16:26:29.422Z,38.75
2022-12-28T16:28:57.914Z,42.80
2022-12-28T16:31:26.582Z,40.35
2022-12-28T16:33:59.298Z,42.03
2022-12-28T16:36:26.533Z,40.95
2022-12-28T16:38:54.191Z,43.80
2022-12-28T16:41:21.814Z,48.33
2022-12-28T16:43:49.989Z,55.28
2022-12-28T16:46:17.381Z,53.22
2022-12-28T16:48:44.768Z,48.35
2022-12-28T16:51:12.471Z,52.92
2022-12-28T16:53:39.859Z,52.95
2022-12-28T16:56:07.387Z,59.35
2022-12-28T16:58:34.782Z,61.50
2022-12-28T17:01:07.644Z,56.78
2022-12-28T17:03:35.436Z,61.80
2022-12-28T17:06:04.389Z,54.58
2022-12-28T17:08:31.794Z,65.07
2022-12-28T17:10:58.952Z,62.20
2022-12-28T17:13:26.055Z,68.57
2022-12-28T17:15:53.684Z,70.03
2022-12-28T17:18:20.969Z,70.63
2022-12-28T17:20:48.347Z,75.85
2022-12-28T17:23:15.606Z,89.97
2022-12-28T17:25:43.540Z,94.75
2022-12-28T17:28:10.735Z,82.47
2022-12-28T17:30:37.991Z,92.63
2022-12-28T17:33:05.106Z,77.10
2022-12-28T17:35:32.305Z,78.25
2022-12-28T17:37:59.389Z,77.25
2022-12-28T17:40:26.870Z,87.93
2022-12-28T17:42:54.350Z,84.97
2022-12-28T17:45:22.723Z,86.93
2022-12-28T17:47:49.929Z,93.70
2022-12-28T17:50:18.460Z,89.28
2022-12-28T17:52:46.294Z,95.60
2022-12-28T17:55:13.392Z,99.97
2022-12-28T17:57:40.638Z,107.80
2022-12-28T18:00:08.596Z,97.78
2022-12-28T18:02:45.734Z,104.78
2022-12-28T18:05:13.144Z,103.35
2022-12-28T18:07:40.366Z,105.97
2022-12-28T18:10:07.848Z,108.45
2022-12-28T18:12:35.074Z,113.70
2022-12-28T18:15:02.554Z,111.68
2022-12-28T18:17:29.979Z,121.25
2022-12-28T18:19:57.181Z,110.90
2022-12-28T18:22:24.762Z,116.72
2022-12-28T18:24:53.750Z,110.18
2022-12-28T18:27:20.959Z,112.80
2022-12-28T18:29:48.183Z,126.97
2022-12-28T18:32:15.435Z,106.97
2022-12-28T18:34:42.804Z,101.13
2022-12-28T18:37:09.977Z,99.88
2022-12-28T18:39:37.212Z,104.47
2022-12-28T18:42:04.426Z,108.95
2022-12-28T18:44:31.841Z,114.43
2022-12-28T18:46:59.006Z,103.80
2022-12-28T18:49:26.370Z,120.28
2022-12-28T18:51:54.098Z,119.22
2022-12-28T18:54:21.214Z,119.72
2022-12-28T18:56:48.249Z,143.60
2022-12-28T18:59:15.509Z,137.80
2022-12-28T19:04:32.212Z,84.95
2022-12-28T19:06:59.497Z,107.25
2022-12-28T19:09:26.720Z,84.10
2022-12-28T19:11:53.979Z,79.60
2022-12-28T19:14:21.229Z,79.03
2022-12-28T19:16:48.385Z,97.60
2022-12-28T19:19:17.440Z,105.35
2022-12-28T19:21:44.768Z,100.55
2022-12-28T19:24:17.792Z,89.90
2022-12-28T19:26:46.119Z,92.03
2022-12-28T19:29:13.940Z,79.95
2022-12-28T19:31:41.295Z,81.68
2022-12-28T19:34:08.579Z,101.18
2022-12-28T19:36:35.633Z,75.53
2022-12-28T19:39:02.768Z,78.22
2022-12-28T19:41:29.890Z,79.32
2022-12-28T19:43:57.343Z,80.18
2022-12-28T19:46:31.479Z,76.05
2022-12-28T19:49:00.132Z,75.88
2022-12-28T19:51:31.338Z,75.95
2022-12-28T19:53:59.756Z,75.30
2022-12-28T19:56:27.275Z,65.40
2022-12-28T19:58:59.434Z,63.08
2022-12-28T20:01:30.804Z,66.13
2022-12-28T20:03:59.597Z,64.93
2022-12-28T20:06:28.486Z,62.80
2022-12-28T20:08:57.026Z,67.05
2022-12-28T20:11:24.598Z,60.40
2022-12-28T20:13:52.713Z,51.22
2022-12-28T20:16:20.252Z,46.78
2022-12-28T20:18:50.830Z,58.72
2022-12-28T20:21:20.491Z,170.38
2022-12-28T20:23:48.724Z,53.08
2022-12-28T20:26:19.749Z,54.83
2022-12-28T20:28:48.733Z,60.50
2022-12-28T20:31:16.203Z,57.63
2022-12-28T20:33:45.095Z,54.22
2022-12-28T20:36:13.731Z,54.25
2022-12-28T20:38:41.310Z,60.60
2022-12-28T20:41:09.895Z,63.15
2022-12-28T20:43:37.036Z,61.22
2022-12-28T20:46:10.722Z,63.05
2022-12-28T20:48:38.196Z,63.40
2022-12-28T20:51:05.541Z,68.13
2022-12-28T20:53:33.006Z,67.47
2022-12-28T20:56:09.828Z,65.15
2022-12-28T20:58:37.988Z,65.53
2022-12-28T21:01:05.908Z,65.28
2022-12-28T21:03:33.622Z,63.40
2022-12-28T21:06:00.755Z,59.63
2022-12-28T21:08:30.901Z,56.28
2022-12-28T21:10:59.064Z,59.35
2022-12-28T21:13:26.395Z,58.90
2022-12-28T21:15:53.668Z,60.25
2022-12-28T21:18:21.291Z,59.20
2022-12-28T21:20:50.090Z,59.85
2022-12-28T21:23:17.645Z,57.88
2022-12-28T21:25:45.007Z,63.00
2022-12-28T21:28:12.498Z,61.88
2022-12-28T21:30:39.763Z,95.22
2022-12-28T21:33:06.846Z,89.68
2022-12-28T21:35:35.113Z,72.13
2022-12-28T21:38:02.217Z,76.88
2022-12-28T21:40:29.465Z,98.50
2022-12-28T21:42:56.738Z,94.22
2022-12-28T21:45:24.109Z,84.18
2022-12-28T21:47:52.456Z,92.63
2022-12-28T21:50:22.478Z,96.57
2022-12-28T21:52:49.742Z,88.05
2022-12-28T21:55:38.259Z,85.15
2022-12-28T21:58:05.503Z,95.80
2022-12-28T22:00:51.439Z,95.55
2022-12-28T22:03:37.178Z,99.95
2022-12-28T22:06:05.246Z,100.43
2022-12-28T22:08:51.536Z,104.22
2022-12-28T22:11:37.764Z,101.95
2022-12-28T22:14:06.245Z,102.18
2022-12-28T22:16:34.686Z,94.82
2022-12-28T22:19:03.600Z,98.22
2022-12-28T22:21:31.598Z,89.60
2022-12-28T22:23:58.744Z,94.20
2022-12-28T22:26:25.888Z,84.95
2022-12-28T22:28:54.599Z,75.72
2022-12-28T22:31:21.724Z,70.18
2022-12-28T22:33:48.840Z,70.22
2022-12-28T22:36:17.428Z,68.88
2022-12-28T22:38:44.879Z,69.05
2022-12-28T22:41:12.522Z,60.42
2022-12-28T22:43:39.640Z,66.32
2022-12-28T22:46:08.014Z,63.50
2022-12-28T22:48:35.790Z,60.70
2022-12-28T22:51:03.985Z,54.20
2022-12-28T22:53:31.362Z,55.00
2022-12-28T22:55:59.941Z,56.35
2022-12-28T22:58:30.428Z,51.55
2022-12-28T23:01:18.145Z,51.80
2022-12-28T23:03:48.951Z,51.33
2022-12-28T23:06:19.396Z,47.70
2022-12-28T23:08:46.932Z,51.30
2022-12-28T23:11:38.683Z,51.28
2022-12-28T23:14:34.140Z,47.85
2022-12-28T23:17:03.037Z,56.03
2022-12-28T23:19:48.828Z,51.97
2022-12-28T23:22:36.156Z,51.85
2022-12-28T23:25:22.502Z,53.05
2022-12-28T23:27:50.052Z,64.10
2022-12-28T23:30:21.635Z,59.97
2022-12-28T23:32:49.901Z,52.88
2022-12-28T23:35:18.027Z,52.83
2022-12-28T23:37:45.737Z,55.83
2022-12-28T23:40:14.036Z,77.53
2022-12-28T23:42:41.855Z,72.63
2022-12-28T23:45:10.563Z,66.50
2022-12-28T23:47:38.043Z,55.30
2022-12-28T23:50:05.700Z,45.00
2022-12-28T23:52:32.913Z,42.88
2022-12-28T23:55:00.402Z,42.28
2022-12-28T23:57:27.550Z,44.50
2022-12-28T23:59:54.852Z,39.67
